女満別空港の過去48時間の天気

女満別空港 (Memanbetsu)

現在時刻: 1/23 14:58 JST (1/23 05:58 UTC) 以下の時間は現地時間です。

過去48時間のMETAR気象情報
時間 風向 風速(m/s) 視程 気温(℃) 湿度(%) 気圧(hPa) 天気現象
23 14:00 西 2 10km以上 -4 68 1000 弱いしゅう雪
23 13:00 南南東 2 8,000m -5 58 1001 弱いしゅう雪
23 12:00 2 10km以上 -5 58 1003
23 11:00 不定 1 10km以上 -7 57 1005
23 10:00 2 10km以上 -9 62 1006
23 09:00 南東 2 10km以上 -11 67 1008
23 08:00 2 10km以上 -12 72 1010
23 07:45 2 10km以上 -12 72 1010
22 20:00 南南西 4 10km以上 -8 48 1018
22 19:00 南南西 4 10km以上 -8 48 1018
22 18:00 3 10km以上 -11 56 1017
22 17:00 南南西 2 10km以上 -5 42 1017
22 16:00 1 10km以上 -6 45 1016
22 15:00 不定 1 10km以上 -4 39 1016
22 14:00 不定 1 10km以上 -4 36 1016
22 13:00 南南西 4 10km以上 -4 42 1016
22 12:00 4 10km以上 -6 45 1017
22 11:00 4 10km以上 -6 45 1017
22 10:00 不定 1 10km以上 -11 61 1018
22 09:00 不定 1 10km以上 -14 66 1018
22 08:00 西南西 2 10km以上 -14 66 1017
22 07:45 南南西 3 10km以上 -14 66 1017
RJCM 230500Z 26003KT 190V290 9999 -SHSN FEW015 SCT030 BKN040 M04/M09 Q1000
RJCM 230400Z 16003KT 8000 -SHSN FEW010 SCT025 BKN040 M05/M12 Q1001
RJCM 230300Z 18003KT 150V250 9999 FEW015 SCT030 BKN040 M05/M12 Q1003
RJCM 230200Z VRB02KT 9999 FEW020 SCT035 BKN050 M07/M14 Q1005
RJCM 230100Z 19003KT 9999 FEW030 SCT060 BKN/// M09/M15 Q1006
RJCM 230000Z 14003KT 090V200 9999 FEW030 BKN160 BKN/// M11/M16 Q1008
RJCM 222300Z 17004KT 9999 FEW030 BKN160 M12/M16 Q1010
RJCM 222245Z 17004KT 130V230 9999 FEW030 BKN160 M12/M16 Q1010 RMK 1CU030 7AC160 A2985
RJCM 221100Z 21007KT 9999 FEW040 SCT/// M08/M17 Q1018
RJCM 221000Z 20007KT 9999 FEW040 M08/M17 Q1018
RJCM 220900Z 19006KT 9999 FEW040 M11/M18 Q1017
RJCM 220800Z 21004KT 9999 FEW040 M05/M16 Q1017
RJCM 220700Z 10002KT 9999 FEW040 M06/M16 Q1016
RJCM 220600Z VRB02KT 9999 FEW050 M04/M16 Q1016
RJCM 220500Z VRB02KT 9999 FEW050 M04/M17 Q1016
RJCM 220400Z 21008KT 9999 FEW040 M04/M15 Q1016
RJCM 220300Z 19007KT 9999 FEW030 SCT060 M06/M16 Q1017
RJCM 220200Z 18008KT 9999 FEW030 SCT050 BKN060 M06/M16 Q1017
RJCM 220100Z VRB02KT 9999 FEW030 BKN070 M11/M17 Q1018
RJCM 220000Z VRB01KT 9999 FEW030 SCT050 BKN070 M14/M19 Q1018
RJCM 212300Z 24004KT 210V290 9999 FEW040 SCT050 BKN060 M14/M19 Q1017
RJCM 212245Z 21006KT 9999 FEW040 BKN070 M14/M19 Q1017 RMK 1CU040 6AC070 A3005